sensor_id;sensor_type;location;lat;lon;timestamp;pressure;altitude;pressure_sealevel;temperature;humidity
40940;BME280;26666;50.156;7.700;2022-12-07T00:00:35;100638.44;;;5.17;100.00
40940;BME280;26666;50.156;7.700;2022-12-07T00:05:37;100632.38;;;5.17;100.00
40940;BME280;26666;50.156;7.700;2022-12-07T00:10:38;100637.31;;;5.07;100.00
40940;BME280;26666;50.156;7.700;2022-12-07T00:15:40;100626.53;;;5.11;100.00
40940;BME280;26666;50.156;7.700;2022-12-07T00:20:41;100621.66;;;5.05;100.00
40940;BME280;26666;50.156;7.700;2022-12-07T00:25:43;100612.81;;;5.08;100.00
40940;BME280;26666;50.156;7.700;2022-12-07T00:30:44;100611.78;;;5.10;100.00
40940;BME280;26666;50.156;7.700;2022-12-07T00:35:55;100611.13;;;5.07;100.00
40940;BME280;26666;50.156;7.700;2022-12-07T00:41:11;100621.72;;;5.20;100.00
40940;BME280;26666;50.156;7.700;2022-12-07T00:46:13;100601.06;;;5.29;100.00
40940;BME280;26666;50.156;7.700;2022-12-07T00:51:17;100599.72;;;5.22;100.00
40940;BME280;26666;50.156;7.700;2022-12-07T00:56:25;100598.63;;;5.26;100.00
40940;BME280;26666;50.156;7.700;2022-12-07T01:01:32;100590.94;;;5.23;100.00
40940;BME280;26666;50.156;7.700;2022-12-07T01:06:34;100583.66;;;5.28;100.00
40940;BME280;26666;50.156;7.700;2022-12-07T01:11:35;100593.28;;;5.28;100.00
40940;BME280;26666;50.156;7.700;2022-12-07T01:16:38;100585.50;;;5.26;100.00
40940;BME280;26666;50.156;7.700;2022-12-07T01:21:40;100585.22;;;5.31;100.00
40940;BME280;26666;50.156;7.700;2022-12-07T01:26:41;100575.22;;;5.23;100.00
40940;BME280;26666;50.156;7.700;2022-12-07T01:31:42;100583.84;;;5.25;100.00
40940;BME280;26666;50.156;7.700;2022-12-07T01:36:44;100587.91;;;5.15;100.00
40940;BME280;26666;50.156;7.700;2022-12-07T01:41:45;100581.31;;;5.24;100.00
40940;BME280;26666;50.156;7.700;2022-12-07T01:46:55;100584.44;;;5.45;100.00
40940;BME280;26666;50.156;7.700;2022-12-07T01:52:25;100576.16;;;5.37;100.00
40940;BME280;26666;50.156;7.700;2022-12-07T01:57:29;100566.44;;;5.24;100.00
40940;BME280;26666;50.156;7.700;2022-12-07T02:02:38;100559.69;;;5.34;100.00
40940;BME280;26666;50.156;7.700;2022-12-07T02:07:43;100567.00;;;5.29;100.00
40940;BME280;26666;50.156;7.700;2022-12-07T02:12:49;100554.34;;;5.50;100.00
40940;BME280;26666;50.156;7.700;2022-12-07T02:18:00;100555.03;;;5.40;100.00
40940;BME280;26666;50.156;7.700;2022-12-07T02:28:31;100549.78;;;5.40;100.00
40940;BME280;26666;50.156;7.700;2022-12-07T02:33:39;100542.94;;;5.51;100.00
40940;BME280;26666;50.156;7.700;2022-12-07T02:38:51;100541.25;;;5.50;100.00
40940;BME280;26666;50.156;7.700;2022-12-07T02:44:02;100541.91;;;5.54;100.00
40940;BME280;26666;50.156;7.700;2022-12-07T02:49:06;100531.72;;;5.49;100.00
40940;BME280;26666;50.156;7.700;2022-12-07T02:54:13;100541.06;;;5.53;100.00
40940;BME280;26666;50.156;7.700;2022-12-07T03:15:43;100544.00;;;5.49;100.00
40940;BME280;26666;50.156;7.700;2022-12-07T03:20:50;100546.41;;;5.52;100.00
40940;BME280;26666;50.156;7.700;2022-12-07T03:25:56;100537.88;;;5.48;100.00
40940;BME280;26666;50.156;7.700;2022-12-07T03:31:05;100525.34;;;5.53;100.00
40940;BME280;26666;50.156;7.700;2022-12-07T03:36:26;100530.13;;;5.61;100.00
40940;BME280;26666;50.156;7.700;2022-12-07T03:41:33;100522.56;;;5.57;100.00
40940;BME280;26666;50.156;7.700;2022-12-07T03:46:50;100526.19;;;5.54;100.00
40940;BME280;26666;50.156;7.700;2022-12-07T03:52:22;100516.66;;;5.53;100.00
40940;BME280;26666;50.156;7.700;2022-12-07T03:57:27;100519.38;;;5.51;100.00
40940;BME280;26666;50.156;7.700;2022-12-07T04:02:31;100518.53;;;5.51;100.00
40940;BME280;26666;50.156;7.700;2022-12-07T04:07:34;100517.88;;;5.47;100.00
40940;BME280;26666;50.156;7.700;2022-12-07T04:12:36;100518.41;;;5.52;100.00
40940;BME280;26666;50.156;7.700;2022-12-07T04:17:37;100513.00;;;5.41;100.00
40940;BME280;26666;50.156;7.700;2022-12-07T04:22:39;100514.41;;;5.47;100.00
40940;BME280;26666;50.156;7.700;2022-12-07T04:27:40;100512.53;;;5.49;100.00
40940;BME280;26666;50.156;7.700;2022-12-07T04:32:42;100506.63;;;5.45;100.00
40940;BME280;26666;50.156;7.700;2022-12-07T04:37:44;100505.03;;;5.43;100.00
40940;BME280;26666;50.156;7.700;2022-12-07T04:42:45;100517.78;;;5.49;100.00
40940;BME280;26666;50.156;7.700;2022-12-07T04:47:47;100522.06;;;5.50;100.00
40940;BME280;26666;50.156;7.700;2022-12-07T04:52:48;100512.91;;;5.57;100.00
40940;BME280;26666;50.156;7.700;2022-12-07T04:57:50;100513.34;;;5.64;100.00
40940;BME280;26666;50.156;7.700;2022-12-07T05:02:51;100507.56;;;5.59;100.00
40940;BME280;26666;50.156;7.700;2022-12-07T05:07:53;100506.34;;;5.64;100.00
40940;BME280;26666;50.156;7.700;2022-12-07T05:12:55;100515.13;;;5.63;100.00
40940;BME280;26666;50.156;7.700;2022-12-07T05:17:57;100511.13;;;5.58;100.00
40940;BME280;26666;50.156;7.700;2022-12-07T05:22:58;100523.00;;;5.63;100.00
40940;BME280;26666;50.156;7.700;2022-12-07T05:28:00;100513.81;;;5.56;100.00
40940;BME280;26666;50.156;7.700;2022-12-07T05:33:02;100518.81;;;5.61;100.00
40940;BME280;26666;50.156;7.700;2022-12-07T05:38:04;100524.13;;;5.59;100.00
40940;BME280;26666;50.156;7.700;2022-12-07T05:43:06;100510.53;;;5.67;100.00
40940;BME280;26666;50.156;7.700;2022-12-07T05:48:07;100510.53;;;5.67;100.00
40940;BME280;26666;50.156;7.700;2022-12-07T05:53:09;100507.19;;;5.65;100.00
40940;BME280;26666;50.156;7.700;2022-12-07T05:58:10;100509.16;;;5.61;100.00
40940;BME280;26666;50.156;7.700;2022-12-07T06:03:12;100505.47;;;5.64;100.00
40940;BME280;26666;50.156;7.700;2022-12-07T06:08:14;100501.66;;;5.55;100.00
40940;BME280;26666;50.156;7.700;2022-12-07T06:13:18;100508.47;;;5.72;100.00
40940;BME280;26666;50.156;7.700;2022-12-07T06:18:20;100514.47;;;5.60;100.00
40940;BME280;26666;50.156;7.700;2022-12-07T06:23:21;100520.09;;;5.68;100.00
40940;BME280;26666;50.156;7.700;2022-12-07T06:28:23;100518.94;;;5.72;100.00
40940;BME280;26666;50.156;7.700;2022-12-07T06:33:25;100510.91;;;5.75;100.00
40940;BME280;26666;50.156;7.700;2022-12-07T06:38:26;100519.72;;;5.74;100.00
40940;BME280;26666;50.156;7.700;2022-12-07T06:43:28;100516.72;;;5.80;100.00
40940;BME280;26666;50.156;7.700;2022-12-07T06:48:29;100510.41;;;5.83;100.00
40940;BME280;26666;50.156;7.700;2022-12-07T06:53:31;100519.81;;;5.72;100.00
40940;BME280;26666;50.156;7.700;2022-12-07T06:58:33;100523.91;;;5.62;100.00
40940;BME280;26666;50.156;7.700;2022-12-07T07:03:34;100533.66;;;5.60;100.00
40940;BME280;26666;50.156;7.700;2022-12-07T07:08:36;100525.63;;;5.63;100.00
40940;BME280;26666;50.156;7.700;2022-12-07T07:13:38;100536.56;;;5.70;100.00
40940;BME280;26666;50.156;7.700;2022-12-07T07:18:40;100533.75;;;5.73;100.00
40940;BME280;26666;50.156;7.700;2022-12-07T07:23:41;100542.66;;;5.70;100.00
40940;BME280;26666;50.156;7.700;2022-12-07T07:28:43;100545.16;;;5.72;100.00
40940;BME280;26666;50.156;7.700;2022-12-07T07:33:46;100545.38;;;5.69;100.00
40940;BME280;26666;50.156;7.700;2022-12-07T07:38:47;100552.41;;;5.68;100.00
40940;BME280;26666;50.156;7.700;2022-12-07T07:43:48;100551.66;;;5.66;100.00
40940;BME280;26666;50.156;7.700;2022-12-07T07:48:50;100552.75;;;5.62;100.00
40940;BME280;26666;50.156;7.700;2022-12-07T07:53:53;100555.47;;;5.75;100.00
40940;BME280;26666;50.156;7.700;2022-12-07T07:58:55;100552.47;;;5.81;100.00
40940;BME280;26666;50.156;7.700;2022-12-07T08:03:56;100543.38;;;5.87;100.00
40940;BME280;26666;50.156;7.700;2022-12-07T08:08:58;100552.94;;;5.88;100.00
40940;BME280;26666;50.156;7.700;2022-12-07T08:14:00;100555.66;;;5.86;100.00
40940;BME280;26666;50.156;7.700;2022-12-07T08:19:04;100548.09;;;5.96;100.00
40940;BME280;26666;50.156;7.700;2022-12-07T08:24:07;100548.53;;;6.03;100.00
40940;BME280;26666;50.156;7.700;2022-12-07T08:29:09;100552.16;;;6.15;100.00
40940;BME280;26666;50.156;7.700;2022-12-07T08:34:11;100559.00;;;6.17;100.00
40940;BME280;26666;50.156;7.700;2022-12-07T08:39:13;100555.97;;;6.23;100.00
40940;BME280;26666;50.156;7.700;2022-12-07T08:44:32;100561.63;;;6.17;100.00
40940;BME280;26666;50.156;7.700;2022-12-07T08:49:41;100566.38;;;6.25;100.00
40940;BME280;26666;50.156;7.700;2022-12-07T08:54:44;100556.81;;;6.24;100.00
40940;BME280;26666;50.156;7.700;2022-12-07T08:59:46;100565.44;;;6.26;100.00
40940;BME280;26666;50.156;7.700;2022-12-07T09:04:47;100566.50;;;6.36;100.00
40940;BME280;26666;50.156;7.700;2022-12-07T09:09:49;100568.41;;;6.34;100.00
40940;BME280;26666;50.156;7.700;2022-12-07T09:14:50;100562.13;;;6.37;100.00
40940;BME280;26666;50.156;7.700;2022-12-07T09:19:52;100571.63;;;6.52;100.00
40940;BME280;26666;50.156;7.700;2022-12-07T09:24:53;100570.25;;;6.46;100.00
40940;BME280;26666;50.156;7.700;2022-12-07T09:29:55;100568.50;;;6.32;100.00
40940;BME280;26666;50.156;7.700;2022-12-07T09:34:57;100566.31;;;6.39;100.00
40940;BME280;26666;50.156;7.700;2022-12-07T09:39:58;100566.22;;;6.41;100.00
40940;BME280;26666;50.156;7.700;2022-12-07T09:45:00;100572.47;;;6.53;100.00
40940;BME280;26666;50.156;7.700;2022-12-07T09:50:06;100561.97;;;6.65;100.00
40940;BME280;26666;50.156;7.700;2022-12-07T09:55:19;100562.88;;;6.51;100.00
40940;BME280;26666;50.156;7.700;2022-12-07T10:00:23;100551.19;;;6.70;100.00
40940;BME280;26666;50.156;7.700;2022-12-07T10:05:31;100547.56;;;6.85;100.00
40940;BME280;26666;50.156;7.700;2022-12-07T10:10:35;100546.19;;;6.80;100.00
40940;BME280;26666;50.156;7.700;2022-12-07T10:15:56;100540.94;;;6.80;100.00
40940;BME280;26666;50.156;7.700;2022-12-07T10:21:16;100536.38;;;6.69;100.00
40940;BME280;26666;50.156;7.700;2022-12-07T10:31:22;100522.84;;;6.88;100.00
40940;BME280;26666;50.156;7.700;2022-12-07T10:36:34;100522.53;;;6.93;100.00
40940;BME280;26666;50.156;7.700;2022-12-07T10:41:52;100516.34;;;6.94;100.00
40940;BME280;26666;50.156;7.700;2022-12-07T11:02:37;100500.38;;;7.09;100.00
40940;BME280;26666;50.156;7.700;2022-12-07T11:13:23;100490.19;;;7.18;100.00
40940;BME280;26666;50.156;7.700;2022-12-07T11:24:14;100479.56;;;7.32;100.00
40940;BME280;26666;50.156;7.700;2022-12-07T11:34:34;100474.53;;;7.16;100.00
40940;BME280;26666;50.156;7.700;2022-12-07T11:39:50;100473.81;;;7.14;100.00
40940;BME280;26666;50.156;7.700;2022-12-07T11:44:56;100460.22;;;7.07;100.00
40940;BME280;26666;50.156;7.700;2022-12-07T11:50:03;100447.72;;;7.11;100.00
40940;BME280;26666;50.156;7.700;2022-12-07T11:55:21;100446.47;;;7.17;100.00
40940;BME280;26666;50.156;7.700;2022-12-07T12:00:27;100429.72;;;7.43;100.00
40940;BME280;26666;50.156;7.700;2022-12-07T12:05:29;100431.81;;;7.25;100.00
40940;BME280;26666;50.156;7.700;2022-12-07T12:21:16;100406.16;;;7.29;100.00
40940;BME280;26666;50.156;7.700;2022-12-07T12:26:24;100410.22;;;7.46;100.00
40940;BME280;26666;50.156;7.700;2022-12-07T12:46:45;100391.94;;;7.44;100.00
40940;BME280;26666;50.156;7.700;2022-12-07T12:51:57;100385.50;;;7.48;100.00
40940;BME280;26666;50.156;7.700;2022-12-07T13:02:26;100386.06;;;7.41;100.00
40940;BME280;26666;50.156;7.700;2022-12-07T13:23:40;100376.34;;;7.54;100.00
40940;BME280;26666;50.156;7.700;2022-12-07T13:29:14;100375.25;;;7.57;100.00
40940;BME280;26666;50.156;7.700;2022-12-07T13:34:36;100370.41;;;7.63;100.00
40940;BME280;26666;50.156;7.700;2022-12-07T13:39:50;100370.00;;;7.57;100.00
40940;BME280;26666;50.156;7.700;2022-12-07T13:44:53;100368.72;;;7.62;100.00
40940;BME280;26666;50.156;7.700;2022-12-07T13:49:55;100363.91;;;7.56;100.00
40940;BME280;26666;50.156;7.700;2022-12-07T14:00:15;100367.88;;;7.38;100.00
40940;BME280;26666;50.156;7.700;2022-12-07T14:05:28;100362.75;;;7.23;100.00
40940;BME280;26666;50.156;7.700;2022-12-07T14:10:35;100360.47;;;7.19;100.00
40940;BME280;26666;50.156;7.700;2022-12-07T14:15:37;100358.78;;;7.18;100.00
40940;BME280;26666;50.156;7.700;2022-12-07T14:20:40;100359.84;;;7.15;100.00
40940;BME280;26666;50.156;7.700;2022-12-07T14:25:46;100361.56;;;7.03;100.00
40940;BME280;26666;50.156;7.700;2022-12-07T14:30:52;100359.47;;;6.96;100.00
40940;BME280;26666;50.156;7.700;2022-12-07T14:35:53;100358.34;;;6.87;100.00
40940;BME280;26666;50.156;7.700;2022-12-07T14:40:56;100350.56;;;6.85;100.00
40940;BME280;26666;50.156;7.700;2022-12-07T14:45:57;100354.22;;;6.83;100.00
40940;BME280;26666;50.156;7.700;2022-12-07T14:50:59;100350.03;;;6.80;100.00
40940;BME280;26666;50.156;7.700;2022-12-07T14:56:20;100346.81;;;6.64;100.00
40940;BME280;26666;50.156;7.700;2022-12-07T15:01:22;100344.19;;;6.51;100.00
40940;BME280;26666;50.156;7.700;2022-12-07T15:06:24;100347.56;;;6.40;100.00
40940;BME280;26666;50.156;7.700;2022-12-07T15:11:25;100348.69;;;6.36;100.00
40940;BME280;26666;50.156;7.700;2022-12-07T15:16:27;100342.59;;;6.23;100.00
40940;BME280;26666;50.156;7.700;2022-12-07T15:21:41;100356.03;;;6.31;100.00
40940;BME280;26666;50.156;7.700;2022-12-07T15:26:43;100353.19;;;6.34;100.00
40940;BME280;26666;50.156;7.700;2022-12-07T15:31:45;100345.53;;;6.31;100.00
40940;BME280;26666;50.156;7.700;2022-12-07T15:36:57;100339.75;;;6.26;100.00
40940;BME280;26666;50.156;7.700;2022-12-07T15:41:59;100345.19;;;6.10;100.00
40940;BME280;26666;50.156;7.700;2022-12-07T15:47:00;100344.78;;;6.03;100.00
40940;BME280;26666;50.156;7.700;2022-12-07T15:52:02;100335.69;;;5.82;100.00
40940;BME280;26666;50.156;7.700;2022-12-07T15:57:04;100330.94;;;5.74;100.00
40940;BME280;26666;50.156;7.700;2022-12-07T16:02:05;100321.97;;;5.64;100.00
40940;BME280;26666;50.156;7.700;2022-12-07T16:07:07;100315.53;;;5.42;100.00
40940;BME280;26666;50.156;7.700;2022-12-07T16:12:10;100320.81;;;5.28;100.00
40940;BME280;26666;50.156;7.700;2022-12-07T16:17:12;100323.44;;;5.28;100.00
40940;BME280;26666;50.156;7.700;2022-12-07T16:22:13;100318.09;;;5.29;100.00
40940;BME280;26666;50.156;7.700;2022-12-07T16:27:15;100319.38;;;5.37;100.00
40940;BME280;26666;50.156;7.700;2022-12-07T16:32:16;100322.72;;;5.39;100.00
40940;BME280;26666;50.156;7.700;2022-12-07T16:37:18;100312.66;;;5.32;100.00
40940;BME280;26666;50.156;7.700;2022-12-07T16:42:19;100308.94;;;5.22;100.00
40940;BME280;26666;50.156;7.700;2022-12-07T16:47:21;100301.28;;;5.19;100.00
40940;BME280;26666;50.156;7.700;2022-12-07T16:52:22;100296.75;;;5.08;100.00
40940;BME280;26666;50.156;7.700;2022-12-07T16:57:24;100306.66;;;5.30;100.00
40940;BME280;26666;50.156;7.700;2022-12-07T17:02:25;100303.66;;;5.37;100.00
40940;BME280;26666;50.156;7.700;2022-12-07T17:07:27;100301.34;;;5.32;100.00
40940;BME280;26666;50.156;7.700;2022-12-07T17:12:28;100296.91;;;5.20;100.00
40940;BME280;26666;50.156;7.700;2022-12-07T17:17:30;100290.44;;;5.25;100.00
40940;BME280;26666;50.156;7.700;2022-12-07T17:22:31;100294.22;;;5.07;100.00
40940;BME280;26666;50.156;7.700;2022-12-07T17:27:33;100293.63;;;5.16;100.00
40940;BME280;26666;50.156;7.700;2022-12-07T17:32:34;100296.44;;;5.13;100.00
40940;BME280;26666;50.156;7.700;2022-12-07T17:37:36;100283.16;;;5.02;100.00
40940;BME280;26666;50.156;7.700;2022-12-07T17:42:37;100292.81;;;5.01;100.00
40940;BME280;26666;50.156;7.700;2022-12-07T17:47:39;100283.91;;;5.04;100.00
40940;BME280;26666;50.156;7.700;2022-12-07T17:52:40;100286.53;;;5.04;100.00
40940;BME280;26666;50.156;7.700;2022-12-07T17:57:42;100279.38;;;4.93;100.00
40940;BME280;26666;50.156;7.700;2022-12-07T18:02:44;100270.69;;;4.92;100.00
40940;BME280;26666;50.156;7.700;2022-12-07T18:07:45;100264.84;;;5.02;100.00
40940;BME280;26666;50.156;7.700;2022-12-07T18:12:47;100254.97;;;4.92;100.00
40940;BME280;26666;50.156;7.700;2022-12-07T18:17:52;100263.97;;;4.88;100.00
40940;BME280;26666;50.156;7.700;2022-12-07T18:22:54;100253.84;;;4.82;100.00
40940;BME280;26666;50.156;7.700;2022-12-07T18:27:55;100256.19;;;4.87;100.00
40940;BME280;26666;50.156;7.700;2022-12-07T18:32:57;100253.22;;;5.06;100.00
40940;BME280;26666;50.156;7.700;2022-12-07T18:37:59;100247.41;;;5.15;100.00
40940;BME280;26666;50.156;7.700;2022-12-07T18:43:00;100247.47;;;5.28;100.00
40940;BME280;26666;50.156;7.700;2022-12-07T18:48:02;100247.63;;;5.12;100.00
40940;BME280;26666;50.156;7.700;2022-12-07T18:53:05;100244.06;;;5.13;100.00
40940;BME280;26666;50.156;7.700;2022-12-07T18:58:06;100234.38;;;5.28;100.00
40940;BME280;26666;50.156;7.700;2022-12-07T19:03:08;100235.53;;;5.37;100.00
40940;BME280;26666;50.156;7.700;2022-12-07T19:08:09;100231.28;;;5.21;100.00
40940;BME280;26666;50.156;7.700;2022-12-07T19:13:11;100225.38;;;5.05;100.00
40940;BME280;26666;50.156;7.700;2022-12-07T19:18:12;100225.13;;;5.22;100.00
40940;BME280;26666;50.156;7.700;2022-12-07T19:23:14;100224.53;;;5.31;100.00
40940;BME280;26666;50.156;7.700;2022-12-07T19:28:15;100224.88;;;5.12;100.00
40940;BME280;26666;50.156;7.700;2022-12-07T19:33:17;100213.81;;;5.34;100.00
40940;BME280;26666;50.156;7.700;2022-12-07T19:38:18;100207.44;;;5.39;100.00
40940;BME280;26666;50.156;7.700;2022-12-07T19:43:20;100210.00;;;5.53;100.00
40940;BME280;26666;50.156;7.700;2022-12-07T19:48:21;100214.06;;;5.44;100.00
40940;BME280;26666;50.156;7.700;2022-12-07T19:53:23;100214.56;;;5.37;100.00
40940;BME280;26666;50.156;7.700;2022-12-07T19:58:24;100195.91;;;5.28;100.00
40940;BME280;26666;50.156;7.700;2022-12-07T20:03:26;100192.94;;;5.20;100.00
40940;BME280;26666;50.156;7.700;2022-12-07T20:08:27;100182.25;;;5.23;100.00
40940;BME280;26666;50.156;7.700;2022-12-07T20:13:29;100184.13;;;5.08;100.00
40940;BME280;26666;50.156;7.700;2022-12-07T20:18:30;100177.97;;;5.22;100.00
40940;BME280;26666;50.156;7.700;2022-12-07T20:23:32;100182.91;;;5.27;100.00
40940;BME280;26666;50.156;7.700;2022-12-07T20:28:34;100175.03;;;5.27;100.00
40940;BME280;26666;50.156;7.700;2022-12-07T20:33:35;100175.34;;;5.22;100.00
40940;BME280;26666;50.156;7.700;2022-12-07T20:38:37;100186.56;;;5.24;100.00
40940;BME280;26666;50.156;7.700;2022-12-07T20:43:38;100175.16;;;5.25;100.00
40940;BME280;26666;50.156;7.700;2022-12-07T20:48:40;100172.81;;;5.21;100.00
40940;BME280;26666;50.156;7.700;2022-12-07T20:53:41;100170.97;;;5.36;100.00
40940;BME280;26666;50.156;7.700;2022-12-07T20:58:43;100173.31;;;5.53;100.00
40940;BME280;26666;50.156;7.700;2022-12-07T21:03:44;100156.94;;;5.62;100.00
40940;BME280;26666;50.156;7.700;2022-12-07T21:08:47;100153.06;;;5.68;100.00
40940;BME280;26666;50.156;7.700;2022-12-07T21:13:49;100158.00;;;5.60;100.00
40940;BME280;26666;50.156;7.700;2022-12-07T21:18:53;100159.28;;;5.67;100.00
40940;BME280;26666;50.156;7.700;2022-12-07T21:23:55;100155.19;;;5.63;100.00
40940;BME280;26666;50.156;7.700;2022-12-07T21:29:04;100155.91;;;5.65;100.00
40940;BME280;26666;50.156;7.700;2022-12-07T21:34:06;100142.91;;;5.63;100.00
40940;BME280;26666;50.156;7.700;2022-12-07T21:39:08;100146.06;;;5.68;100.00
40940;BME280;26666;50.156;7.700;2022-12-07T21:44:09;100138.94;;;5.45;100.00
40940;BME280;26666;50.156;7.700;2022-12-07T21:49:12;100130.97;;;5.59;100.00
40940;BME280;26666;50.156;7.700;2022-12-07T21:54:14;100129.19;;;5.72;100.00
40940;BME280;26666;50.156;7.700;2022-12-07T21:59:16;100121.94;;;5.63;100.00
40940;BME280;26666;50.156;7.700;2022-12-07T22:04:22;100115.22;;;5.72;100.00
40940;BME280;26666;50.156;7.700;2022-12-07T22:09:24;100116.91;;;5.60;100.00
40940;BME280;26666;50.156;7.700;2022-12-07T22:14:26;100110.09;;;5.70;100.00
40940;BME280;26666;50.156;7.700;2022-12-07T22:19:27;100112.91;;;5.67;100.00
40940;BME280;26666;50.156;7.700;2022-12-07T22:24:29;100118.59;;;5.74;100.00
40940;BME280;26666;50.156;7.700;2022-12-07T22:29:30;100112.72;;;5.70;100.00
40940;BME280;26666;50.156;7.700;2022-12-07T22:34:32;100107.03;;;5.77;100.00
40940;BME280;26666;50.156;7.700;2022-12-07T22:39:33;100111.25;;;5.66;100.00
40940;BME280;26666;50.156;7.700;2022-12-07T22:44:35;100106.22;;;5.63;100.00
40940;BME280;26666;50.156;7.700;2022-12-07T22:49:36;100114.16;;;5.62;100.00
40940;BME280;26666;50.156;7.700;2022-12-07T22:54:38;100102.00;;;5.73;100.00
40940;BME280;26666;50.156;7.700;2022-12-07T22:59:40;100092.78;;;5.68;100.00
40940;BME280;26666;50.156;7.700;2022-12-07T23:04:42;100080.00;;;5.50;100.00
40940;BME280;26666;50.156;7.700;2022-12-07T23:09:43;100070.34;;;5.64;100.00
40940;BME280;26666;50.156;7.700;2022-12-07T23:14:45;100075.06;;;5.46;100.00
40940;BME280;26666;50.156;7.700;2022-12-07T23:19:46;100076.22;;;5.67;100.00
40940;BME280;26666;50.156;7.700;2022-12-07T23:24:55;100064.28;;;5.50;100.00
40940;BME280;26666;50.156;7.700;2022-12-07T23:29:57;100060.09;;;5.48;100.00
40940;BME280;26666;50.156;7.700;2022-12-07T23:34:58;100061.34;;;5.42;100.00
40940;BME280;26666;50.156;7.700;2022-12-07T23:40:00;100049.41;;;5.51;100.00
40940;BME280;26666;50.156;7.700;2022-12-07T23:45:01;100041.44;;;5.40;100.00
40940;BME280;26666;50.156;7.700;2022-12-07T23:50:04;100037.13;;;5.39;100.00
40940;BME280;26666;50.156;7.700;2022-12-07T23:55:06;100034.44;;;5.27;100.00
